createdAt,value
2018-05-26T00:00:34.180Z,68.23
2018-05-26T00:01:34.148Z,68.36
2018-05-26T00:02:34.142Z,68.54
2018-05-26T00:03:34.128Z,68.32
2018-05-26T00:04:34.164Z,68.55
2018-05-26T00:05:34.204Z,68.74
2018-05-26T00:06:34.171Z,68.57
2018-05-26T00:07:34.178Z,68.22
2018-05-26T00:08:34.154Z,68.53
2018-05-26T00:09:34.160Z,68.35
2018-05-26T00:10:34.188Z,68.22
2018-05-26T00:11:34.170Z,68.05
2018-05-26T00:12:34.193Z,68.04
2018-05-26T00:13:34.154Z,68.38
2018-05-26T00:14:34.162Z,68.39
2018-05-26T00:15:34.147Z,68.01
2018-05-26T00:16:34.186Z,68.12
2018-05-26T00:17:34.216Z,67.86
2018-05-26T00:18:34.181Z,68.14
2018-05-26T00:19:34.174Z,67.97
2018-05-26T00:20:34.153Z,67.85
2018-05-26T00:21:34.171Z,68.42
2018-05-26T00:22:34.151Z,68.44
2018-05-26T00:23:34.168Z,68.26
2018-05-26T00:24:34.193Z,68.09
2018-05-26T00:25:34.519Z,68.2
2018-05-26T00:26:34.175Z,68.09
2018-05-26T00:27:34.162Z,68.21
2018-05-26T00:28:34.179Z,68.31
2018-05-26T00:29:34.187Z,69.02
2018-05-26T00:30:34.184Z,68.71
2018-05-26T00:31:34.209Z,68.53
2018-05-26T00:32:34.168Z,68.45
2018-05-26T00:33:34.173Z,68.37
2018-05-26T00:34:34.176Z,68.51
2018-05-26T00:35:34.165Z,68.31
2018-05-26T00:36:34.162Z,68.04
2018-05-26T00:37:34.148Z,68.65
2018-05-26T00:38:34.154Z,68.75
2018-05-26T00:39:34.183Z,68.42
2018-05-26T00:40:34.168Z,68.26
2018-05-26T00:41:34.204Z,68.38
2018-05-26T00:42:34.249Z,68.01
2018-05-26T00:43:34.225Z,68.48
2018-05-26T00:44:34.339Z,68.6
2018-05-26T00:45:34.206Z,68.38
2018-05-26T00:46:34.257Z,68.15
2018-05-26T00:47:34.161Z,67.97
2018-05-26T00:48:34.169Z,68.43
2018-05-26T00:49:34.171Z,69.03
2018-05-26T00:50:34.169Z,68.36
2018-05-26T00:51:34.232Z,68.21
2018-05-26T00:52:34.181Z,68.2
2018-05-26T00:53:34.178Z,68.16
2018-05-26T00:54:34.188Z,68.26
2018-05-26T00:55:34.174Z,68.33
2018-05-26T00:56:34.176Z,68.22
2018-05-26T00:57:34.201Z,68.26
2018-05-26T00:58:34.197Z,68.33
2018-05-26T00:59:34.241Z,68.22
2018-05-26T01:00:34.180Z,68.17
2018-05-26T01:01:34.208Z,67.85
2018-05-26T01:02:34.245Z,67.83
2018-05-26T01:03:34.212Z,68.14
2018-05-26T01:04:34.330Z,68.18
2018-05-26T01:05:34.226Z,68.16
2018-05-26T01:06:34.192Z,68.2
2018-05-26T01:07:34.199Z,68.16
2018-05-26T01:08:34.246Z,68
2018-05-26T01:09:34.312Z,68.17
2018-05-26T01:10:34.203Z,67.88
2018-05-26T01:11:34.210Z,68.03
2018-05-26T01:12:34.186Z,68.16
2018-05-26T01:13:34.179Z,68.01
2018-05-26T01:14:34.197Z,68.09
2018-05-26T01:15:34.211Z,67.86
2018-05-26T01:16:34.218Z,67.96
2018-05-26T01:17:34.626Z,67.86
2018-05-26T01:18:34.360Z,68.09
2018-05-26T01:19:34.185Z,67.91
2018-05-26T01:20:34.184Z,67.95
2018-05-26T01:21:34.178Z,67.75
2018-05-26T01:22:34.199Z,67.76
2018-05-26T01:23:34.193Z,67.76
2018-05-26T01:24:34.221Z,67.6
2018-05-26T01:25:34.181Z,67.62
2018-05-26T01:26:34.209Z,67.85
2018-05-26T01:27:34.247Z,67.71
2018-05-26T01:28:34.212Z,67.54
2018-05-26T01:29:34.205Z,67.69
2018-05-26T01:30:34.287Z,67.39
2018-05-26T01:31:34.208Z,67.78
2018-05-26T01:32:34.217Z,67.45
2018-05-26T01:33:34.509Z,67.49
2018-05-26T01:34:34.209Z,67.62
2018-05-26T01:35:34.191Z,67.64
2018-05-26T01:36:34.205Z,67.79
2018-05-26T01:37:34.208Z,67.59
2018-05-26T01:38:34.206Z,67.52
2018-05-26T01:39:34.194Z,67.51
2018-05-26T01:40:34.220Z,67.63
2018-05-26T01:41:34.235Z,67.6
2018-05-26T01:42:34.237Z,67.75
2018-05-26T01:43:34.208Z,67.89
2018-05-26T01:44:34.249Z,67.53
2018-05-26T01:45:34.215Z,67.8
2018-05-26T01:46:34.216Z,67.81
2018-05-26T01:47:34.239Z,67.53
2018-05-26T01:48:34.223Z,67.62
2018-05-26T01:49:34.253Z,67.62
2018-05-26T01:50:34.241Z,67.68
2018-05-26T01:51:34.213Z,67.78
2018-05-26T01:52:34.274Z,67.69
2018-05-26T01:53:34.193Z,67.98
2018-05-26T01:54:34.229Z,67.84
2018-05-26T01:55:34.218Z,67.7
2018-05-26T01:56:34.199Z,67.74
2018-05-26T01:57:34.279Z,67.85
2018-05-26T01:58:34.243Z,68
2018-05-26T01:59:34.224Z,67.97
2018-05-26T02:00:34.242Z,67.91
2018-05-26T02:01:34.210Z,67.94
2018-05-26T02:02:34.218Z,67.86
2018-05-26T02:03:34.229Z,67.98
2018-05-26T02:04:34.254Z,67.91
2018-05-26T02:05:34.270Z,68.08
2018-05-26T02:06:34.210Z,67.83
2018-05-26T02:07:34.215Z,68.04
2018-05-26T02:08:34.225Z,67.99
2018-05-26T02:09:34.370Z,67.93
2018-05-26T02:10:34.405Z,68.17
2018-05-26T02:11:34.231Z,68.14
2018-05-26T02:12:34.278Z,68.04
2018-05-26T02:13:34.209Z,67.91
2018-05-26T02:14:34.235Z,67.94
2018-05-26T02:15:34.224Z,68.23
2018-05-26T02:16:34.274Z,68.04
2018-05-26T02:17:34.279Z,67.94
2018-05-26T02:18:34.227Z,67.91
2018-05-26T02:19:34.400Z,67.68
2018-05-26T02:20:34.293Z,67.95
2018-05-26T02:21:34.242Z,68.08
2018-05-26T02:22:34.274Z,67.81
2018-05-26T02:23:34.216Z,67.92
2018-05-26T02:24:34.583Z,68.27
2018-05-26T02:25:34.235Z,68.39
2018-05-26T02:26:34.492Z,68.32
2018-05-26T02:27:34.237Z,68.28
2018-05-26T02:28:34.245Z,68.2
2018-05-26T02:29:34.246Z,68.22
2018-05-26T02:30:34.272Z,68.25
2018-05-26T02:31:34.286Z,68.34
2018-05-26T02:32:34.262Z,68.28
2018-05-26T02:33:34.274Z,68.27
2018-05-26T02:34:34.404Z,68.44
2018-05-26T02:35:34.267Z,68.31
2018-05-26T02:36:34.272Z,68.52
2018-05-26T02:37:34.295Z,68.59
2018-05-26T02:38:34.220Z,68.67
2018-05-26T02:39:34.227Z,68.77
2018-05-26T02:40:34.235Z,68.81
2018-05-26T02:41:34.221Z,68.87
2018-05-26T02:42:54.517Z,68.85
2018-05-26T02:43:54.545Z,68.7
2018-05-26T02:44:54.529Z,68.99
2018-05-26T02:45:54.537Z,68.81
2018-05-26T02:46:54.525Z,68.66
2018-05-26T02:47:54.514Z,68.83
2018-05-26T02:48:54.508Z,68.91
2018-05-26T02:49:54.539Z,68.97
2018-05-26T02:50:54.479Z,69.13
2018-05-26T02:51:54.524Z,68.78
2018-05-26T02:52:54.543Z,68.8
2018-05-26T02:53:54.487Z,69.1
2018-05-26T02:54:54.546Z,68.9
2018-05-26T02:55:54.499Z,69.42
2018-05-26T02:56:54.515Z,69.5
2018-05-26T02:57:54.487Z,69.69
2018-05-26T02:58:54.553Z,69.72
2018-05-26T02:59:54.499Z,69.47
2018-05-26T03:00:54.531Z,69.45
2018-05-26T03:01:54.525Z,69.68
2018-05-26T03:02:54.506Z,70.01
2018-05-26T03:03:54.508Z,69.77
2018-05-26T03:04:54.515Z,69.74
2018-05-26T03:05:54.533Z,69.6
2018-05-26T03:06:54.529Z,69.92
2018-05-26T03:07:54.482Z,70.16
2018-05-26T03:08:54.540Z,70.25
2018-05-26T03:09:54.541Z,70.28
2018-05-26T03:10:54.526Z,70.56
2018-05-26T03:11:54.516Z,70.12
2018-05-26T03:12:54.833Z,70.32
2018-05-26T03:13:54.531Z,70.56
2018-05-26T03:14:54.521Z,70.45
2018-05-26T03:15:54.489Z,70.33
2018-05-26T03:16:54.514Z,70.58
2018-05-26T03:17:54.557Z,70.89
2018-05-26T03:18:54.520Z,70.66
2018-05-26T03:19:54.499Z,70.11
2018-05-26T03:20:54.499Z,70.8
2018-05-26T03:21:54.480Z,71.16
2018-05-26T03:22:54.493Z,71.07
2018-05-26T03:23:54.501Z,71.14
2018-05-26T03:24:54.707Z,71.29
2018-05-26T03:25:54.486Z,71.35
2018-05-26T03:26:54.491Z,71.07
2018-05-26T03:27:54.470Z,71.25
2018-05-26T03:28:54.492Z,71.4
2018-05-26T03:29:54.492Z,71.35
2018-05-26T03:30:54.484Z,71.5
2018-05-26T03:31:54.478Z,71.52
2018-05-26T03:32:54.575Z,71.52
2018-05-26T03:33:54.492Z,71.31
2018-05-26T03:34:54.469Z,71.09
2018-05-26T03:35:54.518Z,71.36
2018-05-26T03:36:54.462Z,71.16
2018-05-26T03:37:54.572Z,70.99
2018-05-26T03:38:54.558Z,70.66
2018-05-26T03:39:54.473Z,70.57
2018-05-26T03:40:54.502Z,70.62
2018-05-26T03:41:54.491Z,71.04
2018-05-26T03:42:54.538Z,71.4
2018-05-26T03:43:54.486Z,71.3
2018-05-26T03:44:54.488Z,71.59
2018-05-26T03:45:54.522Z,71.2
2018-05-26T03:46:54.517Z,71.37
2018-05-26T03:47:54.456Z,71.19
2018-05-26T03:48:54.506Z,70.76
2018-05-26T03:49:54.588Z,71.45
2018-05-26T03:50:54.640Z,70.89
2018-05-26T03:51:54.516Z,71.64
2018-05-26T03:52:54.448Z,70.94
2018-05-26T03:53:54.470Z,71.12
2018-05-26T03:54:54.844Z,70.95
2018-05-26T03:55:54.460Z,71.31
2018-05-26T03:56:54.477Z,71
2018-05-26T03:57:54.485Z,71.57
2018-05-26T03:58:54.474Z,71.31
2018-05-26T03:59:54.479Z,70.93
2018-05-26T04:00:54.478Z,70.83
2018-05-26T04:01:54.485Z,70.55
2018-05-26T04:02:54.529Z,70.67
2018-05-26T04:03:54.452Z,71.13
2018-05-26T04:04:54.628Z,70.75
2018-05-26T04:05:55.161Z,71.47
2018-05-26T04:06:54.462Z,70.81
2018-05-26T04:07:54.660Z,71.02
2018-05-26T04:08:54.457Z,71.62
2018-05-26T04:09:54.485Z,71.06
2018-05-26T04:10:54.472Z,71.25
2018-05-26T04:11:54.477Z,71.57
2018-05-26T04:12:54.493Z,71.12
2018-05-26T04:13:54.465Z,71.23
2018-05-26T04:14:54.488Z,71.98
2018-05-26T04:15:54.492Z,71.32
2018-05-26T04:16:54.566Z,71.8
2018-05-26T04:17:54.455Z,71.39
2018-05-26T04:18:54.445Z,71.32
2018-05-26T04:19:54.536Z,71.81
2018-05-26T04:20:54.449Z,71.6
2018-05-26T04:21:54.844Z,71.74
2018-05-26T04:22:54.468Z,71.35
2018-05-26T04:23:54.793Z,71.27
2018-05-26T04:24:56.224Z,71.38
2018-05-26T04:25:54.487Z,71.54
2018-05-26T04:26:54.503Z,71.62
2018-05-26T04:27:54.490Z,71.51
2018-05-26T04:28:54.449Z,71.18
2018-05-26T04:29:55.139Z,71.74
2018-05-26T04:30:54.606Z,72.13
2018-05-26T04:31:54.728Z,71.58
2018-05-26T04:32:54.535Z,71.9
2018-05-26T04:33:54.520Z,71.58
2018-05-26T04:34:54.583Z,71.67
2018-05-26T04:35:54.490Z,71.5
2018-05-26T04:36:54.536Z,71.62
2018-05-26T04:37:54.556Z,72.14
2018-05-26T04:38:54.523Z,71.78
2018-05-26T04:39:54.485Z,71.89
2018-05-26T04:40:54.474Z,71.63
2018-05-26T04:41:54.464Z,71.64
2018-05-26T04:42:54.485Z,72.25
2018-05-26T04:43:54.485Z,72.15
2018-05-26T04:44:55.574Z,72.39
2018-05-26T04:45:54.557Z,72.31
2018-05-26T04:46:54.495Z,72.93
2018-05-26T04:47:54.476Z,72.48
2018-05-26T04:48:54.490Z,72.21
2018-05-26T04:49:54.455Z,72.46
2018-05-26T04:50:54.491Z,72.7
2018-05-26T04:51:54.518Z,72.41
2018-05-26T04:52:54.483Z,72.58
2018-05-26T04:53:54.519Z,72.88
2018-05-26T04:54:54.513Z,72.91
2018-05-26T04:55:54.483Z,72.69
2018-05-26T04:56:54.514Z,72.46
2018-05-26T04:57:54.492Z,72.68
2018-05-26T04:58:54.444Z,72.4
2018-05-26T04:59:54.489Z,72.51
2018-05-26T05:00:54.487Z,72.78
2018-05-26T05:01:54.462Z,72.36
2018-05-26T05:02:54.584Z,73.09
2018-05-26T05:03:54.479Z,72.82
2018-05-26T05:04:54.467Z,72.85
2018-05-26T05:05:54.456Z,73.83
2018-05-26T05:06:54.478Z,73.34
2018-05-26T05:07:54.608Z,73.39
2018-05-26T05:08:54.513Z,72.96
2018-05-26T05:09:54.486Z,72.72
2018-05-26T05:10:54.492Z,72.7
2018-05-26T05:11:54.428Z,72.6
2018-05-26T05:12:54.458Z,73.57
2018-05-26T05:13:54.423Z,73.37
2018-05-26T05:14:54.454Z,73.02
2018-05-26T05:15:54.432Z,73.73
2018-05-26T05:16:54.447Z,74.3
2018-05-26T05:17:54.448Z,74.29
2018-05-26T05:18:54.441Z,73.97
2018-05-26T05:19:54.451Z,74.02
2018-05-26T05:20:54.563Z,74.21
2018-05-26T05:21:54.463Z,73.64
2018-05-26T05:22:54.764Z,73.8
2018-05-26T05:23:54.436Z,73.4
2018-05-26T05:24:54.451Z,74.05
2018-05-26T05:25:54.438Z,73.98
2018-05-26T05:26:54.426Z,73.7
2018-05-26T05:27:54.780Z,73.87
2018-05-26T05:28:54.446Z,73.65
2018-05-26T05:29:54.461Z,73.71
2018-05-26T05:30:54.498Z,73.66
2018-05-26T05:31:55.247Z,73.06
2018-05-26T05:32:54.483Z,73.93
2018-05-26T05:33:54.654Z,73.6
2018-05-26T05:34:54.457Z,73.69
2018-05-26T05:35:54.523Z,74
2018-05-26T05:36:54.463Z,73.92
2018-05-26T05:37:54.487Z,73.95
2018-05-26T05:38:54.415Z,73.83
2018-05-26T05:39:54.489Z,73.95
2018-05-26T05:40:54.472Z,73.53
2018-05-26T05:41:54.564Z,73.47
2018-05-26T05:42:54.463Z,73.36
2018-05-26T05:43:54.502Z,73.18
2018-05-26T05:44:54.466Z,73.32
2018-05-26T05:45:54.423Z,73.1
2018-05-26T05:46:54.434Z,73.18
2018-05-26T05:47:54.425Z,73.68
2018-05-26T05:48:54.436Z,73.53
2018-05-26T05:49:54.441Z,73.76
2018-05-26T05:50:54.449Z,73.5
2018-05-26T05:51:54.430Z,73.8
2018-05-26T05:52:54.501Z,73.14
2018-05-26T05:53:54.618Z,73.21
2018-05-26T05:54:54.562Z,73.23
2018-05-26T05:55:54.462Z,73.08
2018-05-26T05:56:54.468Z,73.11
2018-05-26T05:57:54.539Z,73.53
2018-05-26T05:58:54.709Z,73.33
2018-05-26T05:59:54.450Z,73.13
2018-05-26T06:00:54.451Z,73.11
2018-05-26T06:01:54.454Z,73
2018-05-26T06:02:54.452Z,73.55
2018-05-26T06:03:54.441Z,73.11
2018-05-26T06:04:54.491Z,73.15
2018-05-26T06:05:54.591Z,73.07
2018-05-26T06:06:54.687Z,73.49
2018-05-26T06:07:54.470Z,73.41
2018-05-26T06:08:54.436Z,73.1
2018-05-26T06:09:54.609Z,72.98
2018-05-26T06:10:54.539Z,73.17
2018-05-26T06:11:54.414Z,73.19
2018-05-26T06:12:54.439Z,73.27
2018-05-26T06:13:54.584Z,73.07
2018-05-26T06:14:54.658Z,73.15
2018-05-26T06:15:54.455Z,73.17
2018-05-26T06:16:54.457Z,73.08
2018-05-26T06:17:54.811Z,73.4
2018-05-26T06:18:54.467Z,73.46
2018-05-26T06:19:54.421Z,73.25
2018-05-26T06:20:54.434Z,73.11
2018-05-26T06:21:54.475Z,73.35
2018-05-26T06:22:54.408Z,73.51
2018-05-26T06:23:54.427Z,73.37
2018-05-26T06:24:54.432Z,73.37
2018-05-26T06:25:54.435Z,73.37
2018-05-26T06:26:54.402Z,73.23
2018-05-26T06:27:54.406Z,73.33
2018-05-26T06:28:54.412Z,73.25
2018-05-26T06:29:54.436Z,73.49
2018-05-26T06:30:54.420Z,73.52
2018-05-26T06:31:54.436Z,73.62
2018-05-26T06:32:54.406Z,73.46
2018-05-26T06:33:54.444Z,73.87
2018-05-26T06:34:54.511Z,73.72
2018-05-26T06:35:54.584Z,73.58
2018-05-26T06:36:54.395Z,73.51
2018-05-26T06:37:54.482Z,73.37
2018-05-26T06:38:54.462Z,73.5
2018-05-26T06:39:54.451Z,73.33
2018-05-26T06:40:54.482Z,73.88
2018-05-26T06:41:54.490Z,73.78
2018-05-26T06:42:54.403Z,73.8
2018-05-26T06:43:54.388Z,73.95
2018-05-26T06:44:54.403Z,73.61
2018-05-26T06:45:54.434Z,73.68
2018-05-26T06:46:54.632Z,73.74
2018-05-26T06:47:54.419Z,73.41
2018-05-26T06:48:54.748Z,73.65
2018-05-26T06:49:54.417Z,73.59
2018-05-26T06:50:54.552Z,73.43
2018-05-26T06:51:54.425Z,73.11
2018-05-26T06:52:54.438Z,73.5
2018-05-26T06:53:54.529Z,72.99
2018-05-26T06:54:54.398Z,73.02
2018-05-26T06:55:54.731Z,72.68
2018-05-26T06:56:54.399Z,72.78
2018-05-26T06:57:54.408Z,72.66
2018-05-26T06:58:54.438Z,73
2018-05-26T06:59:54.376Z,72.86
2018-05-26T07:00:54.670Z,72.73
2018-05-26T07:01:54.388Z,72.71
2018-05-26T07:02:54.409Z,72.82
2018-05-26T07:03:54.389Z,72.96
2018-05-26T07:04:54.558Z,72.95
2018-05-26T07:05:54.685Z,73.06
2018-05-26T07:06:54.443Z,72.65
2018-05-26T07:07:54.406Z,72.55
2018-05-26T07:08:55.248Z,72.72
2018-05-26T07:09:54.399Z,72.52
2018-05-26T07:10:54.371Z,72.32
2018-05-26T07:11:54.392Z,72.16
2018-05-26T07:12:54.436Z,72.47
2018-05-26T07:13:54.415Z,72.18
2018-05-26T07:14:54.383Z,72.42
2018-05-26T07:15:54.456Z,72.23
2018-05-26T07:16:54.408Z,72.69
2018-05-26T07:17:54.396Z,72.43
2018-05-26T07:18:54.392Z,72.77
2018-05-26T07:19:54.387Z,72.25
2018-05-26T07:20:54.388Z,71.74
2018-05-26T07:21:54.414Z,71.9
2018-05-26T07:22:54.664Z,71.89
2018-05-26T07:23:54.435Z,71.62
2018-05-26T07:24:54.482Z,71.23
2018-05-26T07:25:54.402Z,71.45
2018-05-26T07:26:54.412Z,71.51
2018-05-26T07:27:54.540Z,71.11
2018-05-26T07:28:54.384Z,70.86
2018-05-26T07:29:54.424Z,70.6
2018-05-26T07:30:54.431Z,70.59
2018-05-26T07:31:54.368Z,70.75
2018-05-26T07:32:54.367Z,70.3
2018-05-26T07:33:54.369Z,69.87
2018-05-26T07:34:54.458Z,70.47
2018-05-26T07:35:55.072Z,70.54
2018-05-26T07:36:54.367Z,70.2
2018-05-26T07:37:54.374Z,69.92
2018-05-26T07:38:54.437Z,69.75
2018-05-26T07:39:54.409Z,69.77
2018-05-26T07:40:54.468Z,69.52
2018-05-26T07:41:54.363Z,69.18
2018-05-26T07:42:54.521Z,69.58
2018-05-26T07:43:54.397Z,69.47
2018-05-26T07:44:54.385Z,69.61
2018-05-26T07:45:55.370Z,70.03
2018-05-26T07:46:54.421Z,69.56
2018-05-26T07:47:54.411Z,69.69
2018-05-26T07:48:54.391Z,69.73
2018-05-26T07:49:54.378Z,69.45
2018-05-26T07:50:54.737Z,69.65
2018-05-26T07:51:54.412Z,69.06
2018-05-26T07:52:54.378Z,68.99
2018-05-26T07:53:54.938Z,68.96
2018-05-26T07:54:54.420Z,69.03
2018-05-26T07:55:54.372Z,69.05
2018-05-26T07:56:54.373Z,69.23
2018-05-26T07:57:55.169Z,69.01
2018-05-26T07:58:54.413Z,68.54
2018-05-26T07:59:54.471Z,69.45
2018-05-26T08:00:54.482Z,69.2
2018-05-26T08:01:55.437Z,69.41
2018-05-26T08:02:54.412Z,69.51
2018-05-26T08:03:54.386Z,69.23
2018-05-26T08:04:54.382Z,68.63
2018-05-26T08:05:54.378Z,68.49
2018-05-26T08:06:54.381Z,68.06
2018-05-26T08:07:54.383Z,67.86
2018-05-26T08:08:54.424Z,67.76
2018-05-26T08:09:54.352Z,68.1
2018-05-26T08:10:54.662Z,68.62
2018-05-26T08:11:54.392Z,67.83
2018-05-26T08:12:54.423Z,67.95
2018-05-26T08:13:54.410Z,68.11
2018-05-26T08:14:54.395Z,68
2018-05-26T08:15:54.356Z,67.69
2018-05-26T08:16:54.508Z,67.57
2018-05-26T08:17:54.366Z,67.58
2018-05-26T08:18:54.419Z,67.42
2018-05-26T08:19:54.394Z,66.91
2018-05-26T08:20:54.396Z,67.17
2018-05-26T08:21:54.389Z,66.86
2018-05-26T08:22:54.415Z,66.39
2018-05-26T08:23:54.346Z,66.34
2018-05-26T08:24:54.383Z,66.67
2018-05-26T08:25:54.550Z,66.76
2018-05-26T08:26:54.385Z,66.53
2018-05-26T08:27:54.355Z,66.52
2018-05-26T08:28:54.438Z,66.41
2018-05-26T08:29:54.526Z,66.19
2018-05-26T08:30:54.536Z,66.51
2018-05-26T08:31:54.348Z,66.66
2018-05-26T08:32:54.363Z,66.07
2018-05-26T08:33:54.942Z,65.88
2018-05-26T08:34:54.404Z,66.11
2018-05-26T08:35:54.397Z,65.73
2018-05-26T08:36:54.362Z,65.75
2018-05-26T08:37:54.392Z,64.86
2018-05-26T08:38:54.865Z,65.3
2018-05-26T08:39:54.915Z,64.71
2018-05-26T08:40:54.367Z,64.82
2018-05-26T08:41:54.368Z,64.58
2018-05-26T08:42:54.380Z,64.54
2018-05-26T08:43:54.887Z,64.64
2018-05-26T08:44:54.389Z,65.38
2018-05-26T08:45:54.402Z,65.02
2018-05-26T08:46:54.340Z,65.31
2018-05-26T08:47:54.385Z,64.6
2018-05-26T08:48:54.370Z,64.92
2018-05-26T08:49:54.372Z,65.07
2018-05-26T08:50:54.378Z,64.98
2018-05-26T08:51:54.360Z,64.63
2018-05-26T08:52:54.362Z,63.56
2018-05-26T08:53:54.405Z,63.83
2018-05-26T08:54:56.246Z,63.14
2018-05-26T08:55:54.361Z,62.98
2018-05-26T08:56:54.377Z,63.26
2018-05-26T08:57:54.349Z,64.4
2018-05-26T08:58:54.442Z,63.46
2018-05-26T08:59:54.523Z,62.56
2018-05-26T09:00:54.387Z,63.33
2018-05-26T09:01:54.374Z,63.71
2018-05-26T09:02:54.341Z,63.91
2018-05-26T09:03:56.589Z,64.14
2018-05-26T09:04:54.390Z,62.53
2018-05-26T09:05:54.336Z,63.32
2018-05-26T09:06:54.356Z,63.82
2018-05-26T09:07:54.360Z,64.08
2018-05-26T09:08:54.350Z,63.39
2018-05-26T09:09:54.372Z,61.99
2018-05-26T09:10:54.470Z,61.18
2018-05-26T09:11:56.493Z,61.14
2018-05-26T09:12:54.422Z,60.16
2018-05-26T09:13:54.354Z,61.34
2018-05-26T09:14:54.588Z,60.71
2018-05-26T09:15:54.755Z,59.42
2018-05-26T09:16:54.365Z,59.8
2018-05-26T09:17:55.885Z,60.11
2018-05-26T09:18:54.378Z,60.46
2018-05-26T09:19:54.374Z,60.55
2018-05-26T09:20:54.393Z,59.64
2018-05-26T09:21:54.544Z,59.86
2018-05-26T09:22:54.363Z,59.55
2018-05-26T09:23:54.371Z,59.83
2018-05-26T09:24:54.325Z,60.09
2018-05-26T09:25:54.327Z,61.18
2018-05-26T09:26:54.339Z,60.42
2018-05-26T09:27:54.356Z,60.44
2018-05-26T09:28:54.375Z,61.01
2018-05-26T09:29:54.352Z,60.66
2018-05-26T09:30:54.357Z,61.26
2018-05-26T09:31:54.340Z,61
2018-05-26T09:32:54.324Z,62.31
2018-05-26T09:33:54.374Z,61.5
2018-05-26T09:34:54.388Z,61.09
2018-05-26T09:35:54.351Z,59.69
2018-05-26T09:36:55.149Z,59.38
2018-05-26T09:37:54.398Z,59.05
2018-05-26T09:38:54.465Z,59.31
2018-05-26T09:39:54.319Z,58.66
2018-05-26T09:40:54.545Z,59.64
2018-05-26T09:41:54.532Z,58.68
2018-05-26T09:42:54.371Z,59.15
2018-05-26T09:43:54.375Z,59.83
2018-05-26T09:44:54.356Z,59.73
2018-05-26T09:45:54.362Z,59.93
2018-05-26T09:46:55.088Z,59.76
2018-05-26T09:47:55.089Z,58.02
2018-05-26T09:48:55.053Z,57.95
2018-05-26T09:49:54.356Z,58.54
2018-05-26T09:50:54.399Z,57.73
2018-05-26T09:51:54.371Z,56.96
2018-05-26T09:52:54.381Z,56.27
2018-05-26T09:53:55.497Z,57.61
2018-05-26T09:54:55.287Z,57.15
2018-05-26T09:55:55.151Z,57.74
2018-05-26T09:56:55.157Z,57.99
2018-05-26T09:57:56.024Z,58.01
2018-05-26T09:58:55.817Z,57.15
2018-05-26T09:59:54.346Z,56.65
2018-05-26T10:00:54.403Z,56.57
2018-05-26T10:01:55.071Z,56.77
2018-05-26T10:02:56.073Z,56.52
2018-05-26T10:03:56.021Z,56.8
2018-05-26T10:04:55.173Z,55.42
2018-05-26T10:05:54.413Z,56.4
2018-05-26T10:06:55.643Z,57.28
2018-05-26T10:07:55.071Z,56.05
2018-05-26T10:08:55.713Z,56.57
2018-05-26T10:09:55.315Z,56.23
2018-05-26T10:10:55.094Z,56.3
2018-05-26T10:11:54.931Z,55.93
2018-05-26T10:12:54.419Z,56.13
2018-05-26T10:13:55.207Z,55.95
2018-05-26T10:14:54.393Z,56.95
2018-05-26T10:15:54.417Z,55.85
2018-05-26T10:16:55.872Z,56.2
2018-05-26T10:17:55.098Z,57.05
2018-05-26T10:18:54.852Z,56.56
2018-05-26T10:19:55.394Z,56.41
2018-05-26T10:20:55.926Z,56.78
2018-05-26T10:21:55.131Z,56.37
2018-05-26T10:22:55.098Z,55.16
2018-05-26T10:23:54.430Z,54.58
2018-05-26T10:24:55.169Z,55.08
2018-05-26T10:25:55.899Z,55.19
2018-05-26T10:26:55.138Z,55.76
2018-05-26T10:27:54.386Z,54.51
2018-05-26T10:28:54.396Z,54.09
2018-05-26T10:29:55.215Z,54.19
2018-05-26T10:30:56.046Z,54.38
2018-05-26T10:31:55.130Z,54.17
2018-05-26T10:32:54.440Z,54.07
2018-05-26T10:33:55.648Z,54.48
2018-05-26T10:34:55.783Z,55.03
2018-05-26T10:35:55.096Z,53.01
2018-05-26T10:36:55.095Z,53.57
2018-05-26T10:37:55.607Z,53.15
2018-05-26T10:38:54.311Z,53.09
2018-05-26T10:39:55.154Z,52.53
2018-05-26T10:40:54.370Z,52.06
2018-05-26T10:41:54.384Z,52
2018-05-26T10:42:54.303Z,51.63
2018-05-26T10:43:55.329Z,52
2018-05-26T10:44:55.210Z,52.3
2018-05-26T10:45:54.296Z,53.06
2018-05-26T10:46:54.389Z,52.92
2018-05-26T10:47:54.322Z,52.24
2018-05-26T10:48:54.396Z,52.56
2018-05-26T10:49:54.671Z,52.23
2018-05-26T10:50:54.497Z,53.45
2018-05-26T10:51:54.303Z,53.65
2018-05-26T10:52:54.517Z,53.46
2018-05-26T10:53:54.381Z,53.15
2018-05-26T10:54:54.441Z,53.76
2018-05-26T10:55:54.691Z,53.37
2018-05-26T10:56:54.377Z,53.48
2018-05-26T10:57:54.380Z,53.91
2018-05-26T10:58:54.342Z,54.45
2018-05-26T10:59:54.410Z,52.74
2018-05-26T11:00:54.304Z,51.51
2018-05-26T11:01:54.408Z,51.52
2018-05-26T11:02:54.332Z,51.23
2018-05-26T11:03:54.400Z,50.77
2018-05-26T11:04:54.538Z,50.03
2018-05-26T11:05:54.394Z,50.43
2018-05-26T11:06:54.727Z,51.12
2018-05-26T11:07:54.335Z,51.64
2018-05-26T11:08:54.460Z,52.36
2018-05-26T11:09:54.304Z,52.5
2018-05-26T11:10:54.479Z,52.24
2018-05-26T11:11:54.417Z,52.17
2018-05-26T11:12:54.447Z,51.82
2018-05-26T11:13:54.512Z,49.71
2018-05-26T11:14:54.976Z,48.57
2018-05-26T11:15:54.340Z,48.77
2018-05-26T11:16:55.434Z,47.73
2018-05-26T11:17:55.735Z,48.76
2018-05-26T11:18:54.654Z,49.49
2018-05-26T11:19:54.530Z,49.74
2018-05-26T11:20:54.355Z,49.63
2018-05-26T11:21:54.306Z,49.35
2018-05-26T11:22:54.530Z,49.15
2018-05-26T11:23:54.452Z,49.6
2018-05-26T11:24:54.645Z,49.44
2018-05-26T11:25:54.403Z,48.32
2018-05-26T11:26:54.680Z,48.87
2018-05-26T11:27:54.384Z,49.67
2018-05-26T11:28:54.696Z,49.1
2018-05-26T11:29:54.638Z,49.74
2018-05-26T11:30:54.608Z,48.77
2018-05-26T11:31:54.545Z,48.06
2018-05-26T11:32:54.362Z,48.83
2018-05-26T11:33:54.296Z,47.96
2018-05-26T11:34:54.429Z,48.19
2018-05-26T11:35:54.297Z,46.71
2018-05-26T11:36:54.303Z,48.04
2018-05-26T11:37:54.454Z,45.96
2018-05-26T11:38:54.281Z,46.97
2018-05-26T11:39:54.267Z,46.89
2018-05-26T11:40:54.422Z,47.56
2018-05-26T11:41:54.440Z,46.92
2018-05-26T11:42:54.305Z,47.47
2018-05-26T11:43:54.312Z,47.21
2018-05-26T11:44:54.320Z,47.82
2018-05-26T11:45:54.301Z,47.22
2018-05-26T11:46:54.415Z,47.78
2018-05-26T11:47:54.418Z,46.8
2018-05-26T11:48:54.320Z,47.3
2018-05-26T11:49:54.421Z,47.06
2018-05-26T11:50:54.289Z,46.93
2018-05-26T11:51:54.297Z,46.19
2018-05-26T11:52:54.462Z,46.96
2018-05-26T11:53:54.329Z,46.79
2018-05-26T11:54:54.292Z,47.02
2018-05-26T11:55:54.365Z,47.08
2018-05-26T11:56:54.288Z,47.92
2018-05-26T11:57:54.310Z,46.75
2018-05-26T11:58:54.397Z,47.4
2018-05-26T11:59:54.297Z,46.09
2018-05-26T12:00:54.300Z,46.19
2018-05-26T12:01:54.796Z,46.93
2018-05-26T12:02:54.518Z,46.94
2018-05-26T12:03:54.283Z,47.99
2018-05-26T12:04:54.430Z,47.81
2018-05-26T12:05:54.303Z,47.81
2018-05-26T12:06:54.469Z,47.32
2018-05-26T12:07:54.346Z,46.8
2018-05-26T12:08:54.298Z,46.56
2018-05-26T12:09:54.311Z,46.59
2018-05-26T12:10:54.777Z,45.88
2018-05-26T12:11:54.311Z,46.65
2018-05-26T12:12:54.523Z,45.02
2018-05-26T12:13:54.388Z,44.07
2018-05-26T12:14:54.300Z,44.05
2018-05-26T12:15:54.288Z,44.83
2018-05-26T12:16:54.605Z,44.82
2018-05-26T12:17:54.524Z,45.28
2018-05-26T12:18:54.333Z,45.44
2018-05-26T12:19:54.436Z,45.39
2018-05-26T12:20:54.390Z,45.21
2018-05-26T12:21:54.381Z,45.14
2018-05-26T12:22:54.354Z,45.53
2018-05-26T12:23:54.284Z,45.32
2018-05-26T12:24:54.385Z,46.37
2018-05-26T12:25:54.294Z,45.95
2018-05-26T12:26:54.446Z,46.21
2018-05-26T12:27:54.291Z,46.34
2018-05-26T12:28:54.349Z,45.17
2018-05-26T12:29:54.311Z,45.04
2018-05-26T12:30:54.290Z,45.28
2018-05-26T12:31:54.429Z,46.71
2018-05-26T12:32:54.723Z,45.67
2018-05-26T12:33:54.328Z,46.28
2018-05-26T12:34:55.453Z,45.13
2018-05-26T12:35:54.291Z,44.71
2018-05-26T12:36:54.279Z,43.62
2018-05-26T12:37:56.395Z,42.94
2018-05-26T12:38:54.271Z,43.91
2018-05-26T12:39:54.291Z,43.94
2018-05-26T12:40:54.482Z,43.74
2018-05-26T12:41:54.500Z,42.86
2018-05-26T12:42:54.322Z,43.02
2018-05-26T12:43:54.405Z,43.64
2018-05-26T12:44:54.797Z,43.29
2018-05-26T12:45:54.296Z,42.91
2018-05-26T12:46:54.409Z,44.12
2018-05-26T12:47:54.319Z,44.86
2018-05-26T12:48:54.318Z,44.57
2018-05-26T12:49:54.431Z,45.3
2018-05-26T12:50:54.284Z,45.35
2018-05-26T12:51:54.446Z,44.24
2018-05-26T12:52:54.307Z,45.44
2018-05-26T12:53:54.273Z,44.9
2018-05-26T12:54:54.301Z,44.52
2018-05-26T12:55:54.314Z,45.46